sensor_id;sensor_type;location;lat;lon;timestamp;P1;durP1;ratioP1;P2;durP2;ratioP2
13032;SDS011;6583;42.632;23.298;2023-05-29T00:01:43;7.27;;;5.13;;
13032;SDS011;6583;42.632;23.298;2023-05-29T00:04:09;5.07;;;4.60;;
13032;SDS011;6583;42.632;23.298;2023-05-29T00:06:37;6.40;;;4.17;;
13032;SDS011;6583;42.632;23.298;2023-05-29T00:09:03;5.47;;;4.97;;
13032;SDS011;6583;42.632;23.298;2023-05-29T00:11:30;6.47;;;4.87;;
13032;SDS011;6583;42.632;23.298;2023-05-29T00:13:57;6.60;;;4.93;;
13032;SDS011;6583;42.632;23.298;2023-05-29T00:16:25;5.73;;;4.93;;
13032;SDS011;6583;42.632;23.298;2023-05-29T00:18:51;5.10;;;4.60;;
13032;SDS011;6583;42.632;23.298;2023-05-29T00:21:18;5.77;;;4.33;;
13032;SDS011;6583;42.632;23.298;2023-05-29T00:23:45;6.10;;;4.80;;
13032;SDS011;6583;42.632;23.298;2023-05-29T00:26:13;5.63;;;4.90;;
13032;SDS011;6583;42.632;23.298;2023-05-29T00:28:41;6.13;;;5.30;;
13032;SDS011;6583;42.632;23.298;2023-05-29T00:31:08;5.57;;;5.07;;
13032;SDS011;6583;42.632;23.298;2023-05-29T00:33:38;5.23;;;4.73;;
13032;SDS011;6583;42.632;23.298;2023-05-29T00:36:05;5.10;;;4.60;;
13032;SDS011;6583;42.632;23.298;2023-05-29T00:38:32;5.20;;;4.60;;
13032;SDS011;6583;42.632;23.298;2023-05-29T00:40:59;7.53;;;5.23;;
13032;SDS011;6583;42.632;23.298;2023-05-29T00:43:27;6.70;;;5.20;;
13032;SDS011;6583;42.632;23.298;2023-05-29T00:45:54;5.83;;;4.97;;
13032;SDS011;6583;42.632;23.298;2023-05-29T00:48:21;6.77;;;5.20;;
13032;SDS011;6583;42.632;23.298;2023-05-29T00:50:49;5.00;;;4.60;;
13032;SDS011;6583;42.632;23.298;2023-05-29T00:53:17;6.67;;;5.23;;
13032;SDS011;6583;42.632;23.298;2023-05-29T00:55:43;7.73;;;5.33;;
13032;SDS011;6583;42.632;23.298;2023-05-29T00:58:10;6.67;;;4.97;;
13032;SDS011;6583;42.632;23.298;2023-05-29T01:00:37;5.90;;;5.30;;
13032;SDS011;6583;42.632;23.298;2023-05-29T01:03:04;5.00;;;4.50;;
13032;SDS011;6583;42.632;23.298;2023-05-29T01:05:33;9.07;;;5.40;;
13032;SDS011;6583;42.632;23.298;2023-05-29T01:08:02;9.03;;;5.60;;
13032;SDS011;6583;42.632;23.298;2023-05-29T01:10:29;6.93;;;4.90;;
13032;SDS011;6583;42.632;23.298;2023-05-29T01:12:58;6.60;;;4.77;;
13032;SDS011;6583;42.632;23.298;2023-05-29T01:15:32;5.50;;;5.00;;
13032;SDS011;6583;42.632;23.298;2023-05-29T01:18:14;5.70;;;4.87;;
13032;SDS011;6583;42.632;23.298;2023-05-29T01:20:48;5.53;;;5.03;;
13032;SDS011;6583;42.632;23.298;2023-05-29T01:26:23;6.20;;;4.80;;
13032;SDS011;6583;42.632;23.298;2023-05-29T01:29:07;5.57;;;5.00;;
13032;SDS011;6583;42.632;23.298;2023-05-29T01:31:37;8.27;;;5.37;;
13032;SDS011;6583;42.632;23.298;2023-05-29T01:34:06;5.67;;;5.07;;
13032;SDS011;6583;42.632;23.298;2023-05-29T01:36:33;8.13;;;5.20;;
13032;SDS011;6583;42.632;23.298;2023-05-29T01:39:00;6.13;;;5.50;;
13032;SDS011;6583;42.632;23.298;2023-05-29T01:41:27;8.03;;;5.73;;
13032;SDS011;6583;42.632;23.298;2023-05-29T01:43:57;5.70;;;5.13;;
13032;SDS011;6583;42.632;23.298;2023-05-29T01:46:24;8.37;;;5.70;;
13032;SDS011;6583;42.632;23.298;2023-05-29T01:48:51;7.47;;;5.47;;
13032;SDS011;6583;42.632;23.298;2023-05-29T01:51:20;6.67;;;5.97;;
13032;SDS011;6583;42.632;23.298;2023-05-29T01:53:46;6.60;;;5.87;;
13032;SDS011;6583;42.632;23.298;2023-05-29T01:56:13;6.30;;;5.37;;
13032;SDS011;6583;42.632;23.298;2023-05-29T01:58:40;6.03;;;5.43;;
13032;SDS011;6583;42.632;23.298;2023-05-29T02:01:09;7.53;;;5.20;;
13032;SDS011;6583;42.632;23.298;2023-05-29T02:03:36;6.67;;;5.43;;
13032;SDS011;6583;42.632;23.298;2023-05-29T02:06:02;7.47;;;6.67;;
13032;SDS011;6583;42.632;23.298;2023-05-29T02:08:29;7.30;;;5.87;;
13032;SDS011;6583;42.632;23.298;2023-05-29T02:10:56;8.17;;;5.60;;
13032;SDS011;6583;42.632;23.298;2023-05-29T02:13:22;8.77;;;5.83;;
13032;SDS011;6583;42.632;23.298;2023-05-29T02:15:49;7.77;;;5.63;;
13032;SDS011;6583;42.632;23.298;2023-05-29T02:18:17;7.37;;;6.00;;
13032;SDS011;6583;42.632;23.298;2023-05-29T02:20:44;6.00;;;5.50;;
13032;SDS011;6583;42.632;23.298;2023-05-29T02:23:11;5.30;;;4.80;;
13032;SDS011;6583;42.632;23.298;2023-05-29T02:25:40;7.17;;;5.87;;
13032;SDS011;6583;42.632;23.298;2023-05-29T02:28:07;6.43;;;5.80;;
13032;SDS011;6583;42.632;23.298;2023-05-29T02:30:34;8.47;;;6.40;;
13032;SDS011;6583;42.632;23.298;2023-05-29T02:33:00;6.27;;;5.67;;
13032;SDS011;6583;42.632;23.298;2023-05-29T02:35:28;6.10;;;5.40;;
13032;SDS011;6583;42.632;23.298;2023-05-29T02:37:55;5.63;;;5.13;;
13032;SDS011;6583;42.632;23.298;2023-05-29T02:40:22;7.23;;;5.40;;
13032;SDS011;6583;42.632;23.298;2023-05-29T02:42:49;7.07;;;5.47;;
13032;SDS011;6583;42.632;23.298;2023-05-29T02:45:16;5.53;;;5.03;;
13032;SDS011;6583;42.632;23.298;2023-05-29T02:47:42;5.73;;;5.03;;
13032;SDS011;6583;42.632;23.298;2023-05-29T02:50:09;5.70;;;5.20;;
13032;SDS011;6583;42.632;23.298;2023-05-29T02:52:38;5.67;;;5.17;;
13032;SDS011;6583;42.632;23.298;2023-05-29T02:55:05;5.57;;;4.77;;
13032;SDS011;6583;42.632;23.298;2023-05-29T02:57:32;6.87;;;5.70;;
13032;SDS011;6583;42.632;23.298;2023-05-29T02:59:58;5.80;;;5.20;;
13032;SDS011;6583;42.632;23.298;2023-05-29T03:02:25;7.00;;;5.23;;
13032;SDS011;6583;42.632;23.298;2023-05-29T03:04:52;17.60;;;6.30;;
13032;SDS011;6583;42.632;23.298;2023-05-29T03:07:19;5.87;;;5.27;;
13032;SDS011;6583;42.632;23.298;2023-05-29T03:09:47;12.63;;;5.27;;
13032;SDS011;6583;42.632;23.298;2023-05-29T03:12:15;10.20;;;5.67;;
13032;SDS011;6583;42.632;23.298;2023-05-29T03:14:43;8.67;;;5.97;;
13032;SDS011;6583;42.632;23.298;2023-05-29T03:17:10;14.53;;;5.60;;
13032;SDS011;6583;42.632;23.298;2023-05-29T03:19:37;7.43;;;5.03;;
13032;SDS011;6583;42.632;23.298;2023-05-29T03:22:04;15.30;;;6.30;;
13032;SDS011;6583;42.632;23.298;2023-05-29T03:24:30;6.60;;;5.47;;
13032;SDS011;6583;42.632;23.298;2023-05-29T03:27:01;7.57;;;5.23;;
13032;SDS011;6583;42.632;23.298;2023-05-29T03:29:30;6.53;;;5.60;;
13032;SDS011;6583;42.632;23.298;2023-05-29T03:31:57;6.23;;;5.30;;
13032;SDS011;6583;42.632;23.298;2023-05-29T03:34:24;7.73;;;5.30;;
13032;SDS011;6583;42.632;23.298;2023-05-29T03:36:51;7.90;;;5.70;;
13032;SDS011;6583;42.632;23.298;2023-05-29T03:39:18;6.55;;;5.50;;
13032;SDS011;6583;42.632;23.298;2023-05-29T03:41:45;7.60;;;5.93;;
13032;SDS011;6583;42.632;23.298;2023-05-29T03:44:13;6.60;;;5.85;;
13032;SDS011;6583;42.632;23.298;2023-05-29T03:46:40;8.43;;;6.40;;
13032;SDS011;6583;42.632;23.298;2023-05-29T03:49:06;7.38;;;5.88;;
13032;SDS011;6583;42.632;23.298;2023-05-29T03:51:33;6.75;;;6.05;;
13032;SDS011;6583;42.632;23.298;2023-05-29T03:54:00;7.45;;;5.30;;
13032;SDS011;6583;42.632;23.298;2023-05-29T03:56:27;6.15;;;5.55;;
13032;SDS011;6583;42.632;23.298;2023-05-29T03:58:54;8.52;;;6.03;;
13032;SDS011;6583;42.632;23.298;2023-05-29T04:01:22;7.20;;;6.43;;
13032;SDS011;6583;42.632;23.298;2023-05-29T04:03:49;7.45;;;6.20;;
13032;SDS011;6583;42.632;23.298;2023-05-29T04:06:15;8.68;;;5.80;;
13032;SDS011;6583;42.632;23.298;2023-05-29T04:08:42;7.90;;;6.82;;
13032;SDS011;6583;42.632;23.298;2023-05-29T04:11:09;9.52;;;6.93;;
13032;SDS011;6583;42.632;23.298;2023-05-29T04:13:37;7.70;;;6.68;;
13032;SDS011;6583;42.632;23.298;2023-05-29T04:16:04;7.10;;;6.40;;
13032;SDS011;6583;42.632;23.298;2023-05-29T04:18:32;7.35;;;6.47;;
13032;SDS011;6583;42.632;23.298;2023-05-29T04:20:59;8.13;;;6.78;;
13032;SDS011;6583;42.632;23.298;2023-05-29T04:23:26;7.65;;;6.28;;
13032;SDS011;6583;42.632;23.298;2023-05-29T04:25:52;10.73;;;5.95;;
13032;SDS011;6583;42.632;23.298;2023-05-29T04:28:19;6.03;;;5.43;;
13032;SDS011;6583;42.632;23.298;2023-05-29T04:30:46;6.75;;;5.40;;
13032;SDS011;6583;42.632;23.298;2023-05-29T04:33:13;5.50;;;5.00;;
13032;SDS011;6583;42.632;23.298;2023-05-29T04:35:41;8.88;;;5.72;;
13032;SDS011;6583;42.632;23.298;2023-05-29T04:38:08;8.80;;;5.20;;
13032;SDS011;6583;42.632;23.298;2023-05-29T04:40:35;8.38;;;4.88;;
13032;SDS011;6583;42.632;23.298;2023-05-29T04:43:02;11.23;;;7.05;;
13032;SDS011;6583;42.632;23.298;2023-05-29T04:45:30;9.15;;;7.15;;
13032;SDS011;6583;42.632;23.298;2023-05-29T04:47:57;8.50;;;6.72;;
13032;SDS011;6583;42.632;23.298;2023-05-29T04:50:23;10.32;;;6.30;;
13032;SDS011;6583;42.632;23.298;2023-05-29T04:52:52;6.40;;;5.53;;
13032;SDS011;6583;42.632;23.298;2023-05-29T04:55:19;6.03;;;5.00;;
13032;SDS011;6583;42.632;23.298;2023-05-29T04:57:45;7.20;;;5.05;;
13032;SDS011;6583;42.632;23.298;2023-05-29T05:00:12;4.65;;;4.22;;
13032;SDS011;6583;42.632;23.298;2023-05-29T05:02:41;4.07;;;3.67;;
13032;SDS011;6583;42.632;23.298;2023-05-29T05:05:09;5.35;;;3.95;;
13032;SDS011;6583;42.632;23.298;2023-05-29T05:07:36;4.70;;;4.22;;
13032;SDS011;6583;42.632;23.298;2023-05-29T05:10:04;4.78;;;3.72;;
13032;SDS011;6583;42.632;23.298;2023-05-29T05:12:32;5.68;;;3.78;;
13032;SDS011;6583;42.632;23.298;2023-05-29T05:14:59;7.32;;;5.68;;
13032;SDS011;6583;42.632;23.298;2023-05-29T05:17:25;11.50;;;5.95;;
13032;SDS011;6583;42.632;23.298;2023-05-29T05:19:52;7.90;;;5.82;;
13032;SDS011;6583;42.632;23.298;2023-05-29T05:22:19;9.87;;;5.63;;
13032;SDS011;6583;42.632;23.298;2023-05-29T05:24:46;8.77;;;5.72;;
13032;SDS011;6583;42.632;23.298;2023-05-29T05:27:14;7.57;;;5.43;;
13032;SDS011;6583;42.632;23.298;2023-05-29T05:29:40;8.20;;;5.43;;
13032;SDS011;6583;42.632;23.298;2023-05-29T05:32:07;8.52;;;6.20;;
13032;SDS011;6583;42.632;23.298;2023-05-29T05:34:34;10.18;;;5.82;;
13032;SDS011;6583;42.632;23.298;2023-05-29T05:37:00;9.52;;;5.15;;
13032;SDS011;6583;42.632;23.298;2023-05-29T05:39:27;8.02;;;6.10;;
13032;SDS011;6583;42.632;23.298;2023-05-29T05:41:54;9.38;;;6.70;;
13032;SDS011;6583;42.632;23.298;2023-05-29T05:44:22;9.82;;;6.10;;
13032;SDS011;6583;42.632;23.298;2023-05-29T05:46:49;8.27;;;7.15;;
13032;SDS011;6583;42.632;23.298;2023-05-29T05:49:15;7.38;;;6.32;;
13032;SDS011;6583;42.632;23.298;2023-05-29T05:51:42;7.70;;;6.78;;
13032;SDS011;6583;42.632;23.298;2023-05-29T05:54:08;10.05;;;7.25;;
13032;SDS011;6583;42.632;23.298;2023-05-29T05:56:35;8.05;;;6.78;;
13032;SDS011;6583;42.632;23.298;2023-05-29T05:59:02;8.77;;;6.70;;
13032;SDS011;6583;42.632;23.298;2023-05-29T06:01:30;9.52;;;7.80;;
13032;SDS011;6583;42.632;23.298;2023-05-29T06:03:58;9.18;;;6.28;;
13032;SDS011;6583;42.632;23.298;2023-05-29T06:06:24;8.70;;;6.90;;
13032;SDS011;6583;42.632;23.298;2023-05-29T06:08:51;8.35;;;6.68;;
13032;SDS011;6583;42.632;23.298;2023-05-29T06:11:18;9.00;;;6.72;;
13032;SDS011;6583;42.632;23.298;2023-05-29T06:13:45;8.00;;;6.82;;
13032;SDS011;6583;42.632;23.298;2023-05-29T06:16:11;8.10;;;6.13;;
13032;SDS011;6583;42.632;23.298;2023-05-29T06:18:39;10.20;;;6.82;;
13032;SDS011;6583;42.632;23.298;2023-05-29T06:21:06;8.65;;;6.97;;
13032;SDS011;6583;42.632;23.298;2023-05-29T06:23:34;7.50;;;6.40;;
13032;SDS011;6583;42.632;23.298;2023-05-29T06:26:02;7.57;;;6.45;;
13032;SDS011;6583;42.632;23.298;2023-05-29T06:28:29;8.82;;;6.57;;
13032;SDS011;6583;42.632;23.298;2023-05-29T06:30:56;7.68;;;6.47;;
13032;SDS011;6583;42.632;23.298;2023-05-29T06:33:22;13.45;;;7.72;;
13032;SDS011;6583;42.632;23.298;2023-05-29T06:35:50;8.75;;;6.43;;
13032;SDS011;6583;42.632;23.298;2023-05-29T06:38:17;6.63;;;5.90;;
13032;SDS011;6583;42.632;23.298;2023-05-29T06:40:44;6.88;;;5.82;;
13032;SDS011;6583;42.632;23.298;2023-05-29T06:43:10;10.00;;;5.85;;
13032;SDS011;6583;42.632;23.298;2023-05-29T06:45:37;8.25;;;6.10;;
13032;SDS011;6583;42.632;23.298;2023-05-29T06:48:04;8.73;;;5.93;;
13032;SDS011;6583;42.632;23.298;2023-05-29T06:50:30;7.65;;;5.65;;
13032;SDS011;6583;42.632;23.298;2023-05-29T06:53:00;7.55;;;5.80;;
13032;SDS011;6583;42.632;23.298;2023-05-29T06:55:27;7.43;;;5.30;;
13032;SDS011;6583;42.632;23.298;2023-05-29T06:57:53;7.32;;;4.90;;
13032;SDS011;6583;42.632;23.298;2023-05-29T07:00:20;4.65;;;4.05;;
13032;SDS011;6583;42.632;23.298;2023-05-29T07:02:50;4.70;;;4.20;;
13032;SDS011;6583;42.632;23.298;2023-05-29T07:05:17;4.68;;;3.90;;
13032;SDS011;6583;42.632;23.298;2023-05-29T07:07:43;6.05;;;4.03;;
13032;SDS011;6583;42.632;23.298;2023-05-29T07:10:11;5.90;;;4.07;;
13032;SDS011;6583;42.632;23.298;2023-05-29T07:12:38;6.47;;;4.68;;
13032;SDS011;6583;42.632;23.298;2023-05-29T07:15:05;7.90;;;4.53;;
13032;SDS011;6583;42.632;23.298;2023-05-29T07:17:32;5.28;;;4.30;;
13032;SDS011;6583;42.632;23.298;2023-05-29T07:19:59;4.38;;;3.83;;
13032;SDS011;6583;42.632;23.298;2023-05-29T07:22:25;5.68;;;3.70;;
13032;SDS011;6583;42.632;23.298;2023-05-29T07:24:52;4.50;;;3.30;;
13032;SDS011;6583;42.632;23.298;2023-05-29T07:27:20;3.63;;;3.33;;
13032;SDS011;6583;42.632;23.298;2023-05-29T07:29:46;6.05;;;3.70;;
13032;SDS011;6583;42.632;23.298;2023-05-29T07:32:13;4.15;;;3.72;;
13032;SDS011;6583;42.632;23.298;2023-05-29T07:34:40;6.65;;;4.40;;
13032;SDS011;6583;42.632;23.298;2023-05-29T07:37:06;6.38;;;4.45;;
13032;SDS011;6583;42.632;23.298;2023-05-29T07:39:34;8.30;;;4.22;;
13032;SDS011;6583;42.632;23.298;2023-05-29T07:42:01;4.50;;;4.05;;
13032;SDS011;6583;42.632;23.298;2023-05-29T07:44:29;4.47;;;3.97;;
13032;SDS011;6583;42.632;23.298;2023-05-29T07:46:56;4.72;;;4.05;;
13032;SDS011;6583;42.632;23.298;2023-05-29T07:49:22;5.28;;;4.22;;
13032;SDS011;6583;42.632;23.298;2023-05-29T07:51:50;6.15;;;4.50;;
13032;SDS011;6583;42.632;23.298;2023-05-29T07:54:16;5.32;;;4.50;;
13032;SDS011;6583;42.632;23.298;2023-05-29T07:56:45;7.25;;;4.82;;
13032;SDS011;6583;42.632;23.298;2023-05-29T07:59:12;5.97;;;4.97;;
13032;SDS011;6583;42.632;23.298;2023-05-29T08:01:40;7.07;;;4.70;;
13032;SDS011;6583;42.632;23.298;2023-05-29T08:04:08;5.13;;;4.40;;
13032;SDS011;6583;42.632;23.298;2023-05-29T08:06:35;6.57;;;4.57;;
13032;SDS011;6583;42.632;23.298;2023-05-29T08:09:02;5.50;;;4.03;;
13032;SDS011;6583;42.632;23.298;2023-05-29T08:11:30;5.28;;;4.43;;
13032;SDS011;6583;42.632;23.298;2023-05-29T08:13:57;5.18;;;4.50;;
13032;SDS011;6583;42.632;23.298;2023-05-29T08:16:24;5.93;;;4.38;;
13032;SDS011;6583;42.632;23.298;2023-05-29T08:18:53;4.43;;;4.00;;
13032;SDS011;6583;42.632;23.298;2023-05-29T08:21:21;4.82;;;4.32;;
13032;SDS011;6583;42.632;23.298;2023-05-29T08:23:47;5.90;;;5.13;;
13032;SDS011;6583;42.632;23.298;2023-05-29T08:26:14;5.65;;;4.47;;
13032;SDS011;6583;42.632;23.298;2023-05-29T08:28:41;4.93;;;4.40;;
13032;SDS011;6583;42.632;23.298;2023-05-29T08:31:07;4.57;;;4.15;;
13032;SDS011;6583;42.632;23.298;2023-05-29T08:33:34;5.13;;;4.07;;
13032;SDS011;6583;42.632;23.298;2023-05-29T08:36:03;5.10;;;4.22;;
13032;SDS011;6583;42.632;23.298;2023-05-29T08:38:30;5.28;;;4.20;;
13032;SDS011;6583;42.632;23.298;2023-05-29T08:40:56;4.50;;;4.13;;
13032;SDS011;6583;42.632;23.298;2023-05-29T08:43:24;6.05;;;4.55;;
13032;SDS011;6583;42.632;23.298;2023-05-29T08:45:58;5.63;;;4.45;;
13032;SDS011;6583;42.632;23.298;2023-05-29T08:48:26;5.38;;;4.43;;
13032;SDS011;6583;42.632;23.298;2023-05-29T08:50:55;5.30;;;4.22;;
13032;SDS011;6583;42.632;23.298;2023-05-29T08:53:24;4.45;;;3.90;;
13032;SDS011;6583;42.632;23.298;2023-05-29T08:55:52;4.03;;;3.65;;
13032;SDS011;6583;42.632;23.298;2023-05-29T08:58:20;4.40;;;3.92;;
13032;SDS011;6583;42.632;23.298;2023-05-29T09:00:48;4.60;;;4.20;;
13032;SDS011;6583;42.632;23.298;2023-05-29T09:03:16;5.22;;;3.83;;
13032;SDS011;6583;42.632;23.298;2023-05-29T09:05:45;4.70;;;3.80;;
13032;SDS011;6583;42.632;23.298;2023-05-29T09:08:12;5.32;;;3.75;;
13032;SDS011;6583;42.632;23.298;2023-05-29T09:10:41;4.95;;;4.15;;
13032;SDS011;6583;42.632;23.298;2023-05-29T09:13:08;4.45;;;3.83;;
13032;SDS011;6583;42.632;23.298;2023-05-29T09:15:36;4.30;;;3.90;;
13032;SDS011;6583;42.632;23.298;2023-05-29T09:18:05;5.20;;;3.88;;
13032;SDS011;6583;42.632;23.298;2023-05-29T09:20:32;5.72;;;4.22;;
13032;SDS011;6583;42.632;23.298;2023-05-29T09:22:59;4.57;;;3.90;;
13032;SDS011;6583;42.632;23.298;2023-05-29T09:25:28;7.03;;;4.05;;
13032;SDS011;6583;42.632;23.298;2023-05-29T09:27:59;5.40;;;4.05;;
13032;SDS011;6583;42.632;23.298;2023-05-29T09:30:31;4.22;;;3.90;;
13032;SDS011;6583;42.632;23.298;2023-05-29T09:33:02;4.32;;;3.92;;
13032;SDS011;6583;42.632;23.298;2023-05-29T09:35:33;5.60;;;4.00;;
13032;SDS011;6583;42.632;23.298;2023-05-29T09:38:01;6.80;;;4.28;;
13032;SDS011;6583;42.632;23.298;2023-05-29T09:40:29;5.53;;;4.65;;
13032;SDS011;6583;42.632;23.298;2023-05-29T09:43:02;4.75;;;4.20;;
13032;SDS011;6583;42.632;23.298;2023-05-29T09:45:34;6.65;;;4.70;;
13032;SDS011;6583;42.632;23.298;2023-05-29T09:48:04;4.20;;;3.90;;
13032;SDS011;6583;42.632;23.298;2023-05-29T09:50:32;4.10;;;3.58;;
13032;SDS011;6583;42.632;23.298;2023-05-29T09:53:00;6.88;;;4.60;;
13032;SDS011;6583;42.632;23.298;2023-05-29T09:55:27;5.28;;;4.20;;
13032;SDS011;6583;42.632;23.298;2023-05-29T09:57:57;7.07;;;4.10;;
13032;SDS011;6583;42.632;23.298;2023-05-29T10:00:26;4.88;;;3.90;;
13032;SDS011;6583;42.632;23.298;2023-05-29T10:02:53;6.53;;;3.92;;
13032;SDS011;6583;42.632;23.298;2023-05-29T10:05:20;4.10;;;3.70;;
13032;SDS011;6583;42.632;23.298;2023-05-29T10:07:47;6.78;;;4.28;;
13032;SDS011;6583;42.632;23.298;2023-05-29T10:10:18;4.72;;;3.83;;
13032;SDS011;6583;42.632;23.298;2023-05-29T10:12:48;5.03;;;4.07;;
13032;SDS011;6583;42.632;23.298;2023-05-29T10:15:16;5.47;;;3.63;;
13032;SDS011;6583;42.632;23.298;2023-05-29T10:17:49;5.07;;;3.78;;
13032;SDS011;6583;42.632;23.298;2023-05-29T10:20:17;4.10;;;3.70;;
13032;SDS011;6583;42.632;23.298;2023-05-29T10:22:47;3.88;;;3.53;;
13032;SDS011;6583;42.632;23.298;2023-05-29T10:25:18;4.38;;;3.97;;
13032;SDS011;6583;42.632;23.298;2023-05-29T10:27:46;4.72;;;4.10;;
13032;SDS011;6583;42.632;23.298;2023-05-29T10:30:15;4.18;;;3.70;;
13032;SDS011;6583;42.632;23.298;2023-05-29T10:35:47;5.45;;;4.22;;
13032;SDS011;6583;42.632;23.298;2023-05-29T10:38:18;4.75;;;4.05;;
13032;SDS011;6583;42.632;23.298;2023-05-29T10:40:46;4.50;;;4.10;;
13032;SDS011;6583;42.632;23.298;2023-05-29T10:45:58;4.50;;;4.10;;
13032;SDS011;6583;42.632;23.298;2023-05-29T10:48:39;5.00;;;4.50;;
13032;SDS011;6583;42.632;23.298;2023-05-29T10:51:07;4.20;;;3.80;;
13032;SDS011;6583;42.632;23.298;2023-05-29T10:53:34;4.65;;;4.25;;
13032;SDS011;6583;42.632;23.298;2023-05-29T10:56:07;5.43;;;4.18;;
13032;SDS011;6583;42.632;23.298;2023-05-29T10:58:36;5.63;;;4.38;;
13032;SDS011;6583;42.632;23.298;2023-05-29T11:01:03;10.13;;;4.70;;
13032;SDS011;6583;42.632;23.298;2023-05-29T11:03:30;5.32;;;4.47;;
13032;SDS011;6583;42.632;23.298;2023-05-29T11:05:59;5.03;;;4.47;;
13032;SDS011;6583;42.632;23.298;2023-05-29T11:08:32;4.80;;;4.40;;
13032;SDS011;6583;42.632;23.298;2023-05-29T11:11:00;7.90;;;4.70;;
13032;SDS011;6583;42.632;23.298;2023-05-29T11:13:31;14.95;;;7.03;;
13032;SDS011;6583;42.632;23.298;2023-05-29T11:16:09;7.88;;;6.00;;
13032;SDS011;6583;42.632;23.298;2023-05-29T11:18:38;8.32;;;6.47;;
13032;SDS011;6583;42.632;23.298;2023-05-29T11:21:08;9.15;;;7.15;;
13032;SDS011;6583;42.632;23.298;2023-05-29T11:23:47;8.43;;;7.30;;
13032;SDS011;6583;42.632;23.298;2023-05-29T11:26:17;12.85;;;8.23;;
13032;SDS011;6583;42.632;23.298;2023-05-29T11:28:44;22.80;;;7.93;;
13032;SDS011;6583;42.632;23.298;2023-05-29T11:31:10;15.85;;;6.65;;
13032;SDS011;6583;42.632;23.298;2023-05-29T11:33:40;8.43;;;5.20;;
13032;SDS011;6583;42.632;23.298;2023-05-29T11:36:09;6.50;;;4.88;;
13032;SDS011;6583;42.632;23.298;2023-05-29T11:38:36;6.15;;;5.22;;
13032;SDS011;6583;42.632;23.298;2023-05-29T11:41:03;5.00;;;4.47;;
13032;SDS011;6583;42.632;23.298;2023-05-29T11:43:29;5.30;;;4.80;;
13032;SDS011;6583;42.632;23.298;2023-05-29T11:45:57;7.03;;;5.13;;
13032;SDS011;6583;42.632;23.298;2023-05-29T11:48:23;5.88;;;5.13;;
13032;SDS011;6583;42.632;23.298;2023-05-29T11:50:50;4.53;;;3.92;;
13032;SDS011;6583;42.632;23.298;2023-05-29T11:53:19;5.55;;;5.03;;
13032;SDS011;6583;42.632;23.298;2023-05-29T11:55:46;5.90;;;5.30;;
13032;SDS011;6583;42.632;23.298;2023-05-29T11:58:12;4.85;;;4.43;;
13032;SDS011;6583;42.632;23.298;2023-05-29T12:00:41;6.88;;;4.72;;
13032;SDS011;6583;42.632;23.298;2023-05-29T12:03:08;4.93;;;4.45;;
13032;SDS011;6583;42.632;23.298;2023-05-29T12:05:43;8.45;;;4.88;;
13032;SDS011;6583;42.632;23.298;2023-05-29T12:08:11;5.47;;;4.97;;
13032;SDS011;6583;42.632;23.298;2023-05-29T12:10:40;12.43;;;5.95;;
13032;SDS011;6583;42.632;23.298;2023-05-29T12:13:13;10.82;;;6.53;;
13032;SDS011;6583;42.632;23.298;2023-05-29T12:15:42;11.73;;;6.80;;
13032;SDS011;6583;42.632;23.298;2023-05-29T12:18:08;5.80;;;5.13;;
13032;SDS011;6583;42.632;23.298;2023-05-29T12:20:36;9.57;;;5.95;;
13032;SDS011;6583;42.632;23.298;2023-05-29T12:23:02;9.88;;;6.85;;
13032;SDS011;6583;42.632;23.298;2023-05-29T12:25:30;8.82;;;6.75;;
13032;SDS011;6583;42.632;23.298;2023-05-29T12:27:58;8.52;;;6.97;;
13032;SDS011;6583;42.632;23.298;2023-05-29T12:30:25;8.00;;;7.00;;
13032;SDS011;6583;42.632;23.298;2023-05-29T12:32:52;8.10;;;6.70;;
13032;SDS011;6583;42.632;23.298;2023-05-29T12:35:19;7.53;;;5.80;;
13032;SDS011;6583;42.632;23.298;2023-05-29T12:37:48;6.28;;;5.65;;
13032;SDS011;6583;42.632;23.298;2023-05-29T12:40:16;9.40;;;6.30;;
13032;SDS011;6583;42.632;23.298;2023-05-29T12:42:43;7.18;;;6.30;;
13032;SDS011;6583;42.632;23.298;2023-05-29T12:45:12;9.57;;;6.82;;
13032;SDS011;6583;42.632;23.298;2023-05-29T12:47:44;7.70;;;6.30;;
13032;SDS011;6583;42.632;23.298;2023-05-29T12:50:19;6.82;;;6.13;;
13032;SDS011;6583;42.632;23.298;2023-05-29T12:52:52;8.57;;;6.90;;
13032;SDS011;6583;42.632;23.298;2023-05-29T12:55:20;10.18;;;7.03;;
13032;SDS011;6583;42.632;23.298;2023-05-29T12:57:46;7.60;;;6.05;;
13032;SDS011;6583;42.632;23.298;2023-05-29T13:00:15;7.22;;;6.35;;
13032;SDS011;6583;42.632;23.298;2023-05-29T13:02:42;6.43;;;5.82;;
13032;SDS011;6583;42.632;23.298;2023-05-29T13:05:09;7.45;;;5.95;;
13032;SDS011;6583;42.632;23.298;2023-05-29T13:07:36;8.52;;;7.05;;
13032;SDS011;6583;42.632;23.298;2023-05-29T13:10:03;16.30;;;8.35;;
13032;SDS011;6583;42.632;23.298;2023-05-29T13:12:31;13.38;;;7.28;;
13032;SDS011;6583;42.632;23.298;2023-05-29T13:14:57;8.60;;;7.07;;
13032;SDS011;6583;42.632;23.298;2023-05-29T13:17:25;9.68;;;7.15;;
13032;SDS011;6583;42.632;23.298;2023-05-29T13:19:52;8.75;;;7.70;;
13032;SDS011;6583;42.632;23.298;2023-05-29T13:22:19;10.27;;;7.78;;
13032;SDS011;6583;42.632;23.298;2023-05-29T13:24:45;9.57;;;7.20;;
13032;SDS011;6583;42.632;23.298;2023-05-29T13:27:12;7.28;;;6.57;;
13032;SDS011;6583;42.632;23.298;2023-05-29T13:29:41;7.60;;;6.18;;
13032;SDS011;6583;42.632;23.298;2023-05-29T13:32:08;7.78;;;6.78;;
13032;SDS011;6583;42.632;23.298;2023-05-29T13:34:36;6.93;;;6.30;;
13032;SDS011;6583;42.632;23.298;2023-05-29T13:37:03;10.57;;;7.40;;
13032;SDS011;6583;42.632;23.298;2023-05-29T13:39:30;10.13;;;7.18;;
13032;SDS011;6583;42.632;23.298;2023-05-29T13:41:57;8.88;;;6.95;;
13032;SDS011;6583;42.632;23.298;2023-05-29T13:44:23;8.18;;;6.88;;
13032;SDS011;6583;42.632;23.298;2023-05-29T13:46:50;9.70;;;6.55;;
13032;SDS011;6583;42.632;23.298;2023-05-29T13:49:17;7.47;;;6.13;;
13032;SDS011;6583;42.632;23.298;2023-05-29T13:51:45;8.82;;;6.60;;
13032;SDS011;6583;42.632;23.298;2023-05-29T13:54:12;8.30;;;6.53;;
13032;SDS011;6583;42.632;23.298;2023-05-29T13:56:39;8.93;;;6.85;;
13032;SDS011;6583;42.632;23.298;2023-05-29T13:59:05;10.45;;;6.90;;
13032;SDS011;6583;42.632;23.298;2023-05-29T14:01:32;8.73;;;7.03;;
13032;SDS011;6583;42.632;23.298;2023-05-29T14:03:59;7.25;;;6.53;;
13032;SDS011;6583;42.632;23.298;2023-05-29T14:06:26;7.78;;;6.97;;
13032;SDS011;6583;42.632;23.298;2023-05-29T14:08:54;7.57;;;6.88;;
13032;SDS011;6583;42.632;23.298;2023-05-29T14:11:21;10.85;;;7.75;;
13032;SDS011;6583;42.632;23.298;2023-05-29T14:13:48;7.82;;;7.03;;
13032;SDS011;6583;42.632;23.298;2023-05-29T14:16:15;8.20;;;7.40;;
13032;SDS011;6583;42.632;23.298;2023-05-29T14:18:41;8.02;;;7.10;;
13032;SDS011;6583;42.632;23.298;2023-05-29T14:21:08;7.93;;;6.75;;
13032;SDS011;6583;42.632;23.298;2023-05-29T14:23:35;7.43;;;6.70;;
13032;SDS011;6583;42.632;23.298;2023-05-29T14:26:03;8.05;;;6.85;;
13032;SDS011;6583;42.632;23.298;2023-05-29T14:28:30;6.78;;;6.05;;
13032;SDS011;6583;42.632;23.298;2023-05-29T14:30:56;8.25;;;6.80;;
13032;SDS011;6583;42.632;23.298;2023-05-29T14:33:23;8.15;;;6.45;;
13032;SDS011;6583;42.632;23.298;2023-05-29T14:35:51;7.68;;;5.50;;
13032;SDS011;6583;42.632;23.298;2023-05-29T14:38:17;5.25;;;4.75;;
13032;SDS011;6583;42.632;23.298;2023-05-29T14:40:44;6.05;;;4.78;;
13032;SDS011;6583;42.632;23.298;2023-05-29T14:43:12;7.50;;;3.60;;
13032;SDS011;6583;42.632;23.298;2023-05-29T14:45:39;5.20;;;4.70;;
13032;SDS011;6583;42.632;23.298;2023-05-29T14:48:07;4.68;;;4.28;;
13032;SDS011;6583;42.632;23.298;2023-05-29T14:50:35;4.75;;;4.32;;
13032;SDS011;6583;42.632;23.298;2023-05-29T14:53:01;5.80;;;4.28;;
13032;SDS011;6583;42.632;23.298;2023-05-29T14:55:31;4.32;;;3.92;;
13032;SDS011;6583;42.632;23.298;2023-05-29T14:58:02;6.93;;;4.68;;